Chute-des-Passes, Canada
Current Conditions -  °F | °C
As of 5:27 AM on Saturday 22 Nov 2014 (Local Time) from CYRJ Reporting Station
Light Snow Light Snow  
Wind Chill:   Ceiling: 400
Heat Index: 12°   Visibility: 1mi
Dew Point:   Wind: 9mph
Humidity: 79%   Direction: 180°S
Pressure: 29.94"   Gusts: NA
Location:  49.87°N, 71.28°W
Report Text: CYRJ 221027Z 18008KT 150V220 1SM -SN VV004 M11/M14 A2994 RMK SN8 PRESFR SLP152
Loading
Personal Weather Stations






























Interactive Weather Map New forecast layout! Learn more

10-Day Weather Forecast

Advertisements
Track Severe Weather on mobile